Time;durP1;ratioP1;P1;durP2;ratioP2;P2;SDS_P1;SDS_P2;PMS_P1;PMS_P2;Temp;Humidity;BMP_temperature;BMP_pressure;BME280_temperature;BME280_humidity;BME280_pressure;Samples;Min_cycle;Max_cycle;Signal;HPM_P1;HPM_P2
2023/03/11 00:02:09;;;;;;;6.00;1.30;;;3.00;99.90;;;;;;5035438;28;20038;-76
2023/03/11 00:04:35;;;;;;;2.33;0.85;;;3.00;99.90;;;;;;5035570;28;20033;-77
2023/03/11 00:07:01;;;;;;;3.72;1.30;;;3.00;99.90;;;;;;5027815;28;20025;-76
2023/03/11 00:09:26;;;;;;;5.32;1.60;;;3.00;99.90;;;;;;5029750;28;20034;-77
2023/03/11 00:11:52;;;;;;;4.93;1.35;;;3.00;99.90;;;;;;5014504;28;20030;-76
2023/03/11 00:14:18;;;;;;;7.35;1.90;;;3.00;99.90;;;;;;5017702;28;20029;-77
2023/03/11 00:16:44;;;;;;;7.35;2.08;;;3.00;99.90;;;;;;5022757;28;20088;-76
2023/03/11 00:19:09;;;;;;;5.55;1.50;;;3.00;99.90;;;;;;5034995;28;20065;-77
2023/03/11 00:21:35;;;;;;;10.45;1.77;;;3.00;99.90;;;;;;5035656;28;20035;-76
2023/03/11 00:24:02;;;;;;;5.28;1.35;;;3.00;99.90;;;;;;5035506;28;20471;-77
2023/03/11 00:26:28;;;;;;;9.32;1.95;;;2.90;99.90;;;;;;5017574;28;20044;-77
2023/03/11 00:28:54;;;;;;;8.63;1.67;;;2.90;99.90;;;;;;5034951;28;20030;-77
2023/03/11 00:31:20;;;;;;;5.88;1.83;;;2.90;99.90;;;;;;5035152;28;20030;-77
2023/03/11 00:33:46;;;;;;;6.93;1.58;;;2.90;99.90;;;;;;5035204;28;20113;-78
2023/03/11 00:36:32;;;;;;;4.57;1.55;;;2.80;99.90;;;;;;5034350;28;20034;-77
2023/03/11 00:38:59;;;;;;;8.95;1.98;;;2.90;99.90;;;;;;5035161;28;20025;-77
2023/03/11 00:41:25;;;;;;;7.47;1.58;;;2.90;99.90;;;;;;5017415;28;20167;-77
2023/03/11 00:43:50;;;;;;;8.77;1.45;;;2.80;99.90;;;;;;5034971;28;20104;-77
2023/03/11 00:46:16;;;;;;;5.78;1.45;;;2.90;99.90;;;;;;5035236;28;20072;-77
2023/03/11 00:48:41;;;;;;;6.15;1.50;;;2.90;99.90;;;;;;5034908;28;20068;-77
2023/03/11 00:51:12;;;;;;;7.57;1.75;;;2.90;99.90;;;;;;5035019;28;20034;-78
2023/03/11 00:53:37;;;;;;;11.13;2.72;;;2.90;99.90;;;;;;5017273;28;20038;-78
2023/03/11 00:56:08;;;;;;;8.88;2.38;;;2.90;99.90;;;;;;5034942;28;20457;-77
2023/03/11 00:58:34;;;;;;;10.40;3.45;;;2.90;99.90;;;;;;5034240;28;20035;-78
2023/03/11 01:01:07;;;;;;;13.32;3.10;;;2.90;99.90;;;;;;5034780;28;20026;-78
2023/03/11 01:03:32;;;;;;;12.02;4.00;;;2.90;99.90;;;;;;5034343;28;20381;-78
2023/03/11 01:05:58;;;;;;;12.50;3.30;;;3.00;99.90;;;;;;5034289;28;20021;-78
2023/03/11 01:08:25;;;;;;;9.90;2.72;;;2.90;99.90;;;;;;5016726;28;20033;-77
2023/03/11 01:10:52;;;;;;;8.05;2.80;;;2.90;99.90;;;;;;5016140;28;20029;-78
2023/03/11 01:13:18;;;;;;;11.48;2.88;;;2.90;99.90;;;;;;5034293;28;20044;-78
2023/03/11 01:15:44;;;;;;;6.35;1.98;;;2.90;99.90;;;;;;5016446;28;20440;-78
2023/03/11 01:18:09;;;;;;;3.65;1.30;;;2.80;99.90;;;;;;5034104;28;20436;-78
2023/03/11 01:20:37;;;;;;;9.10;1.70;;;2.80;99.90;;;;;;5034227;28;20018;-78
2023/03/11 01:23:03;;;;;;;5.68;1.50;;;2.80;99.90;;;;;;5016360;28;20026;-77
2023/03/11 01:25:29;;;;;;;7.63;1.38;;;2.80;99.90;;;;;;5033867;28;20030;-78
2023/03/11 01:27:55;;;;;;;8.75;1.83;;;2.80;99.90;;;;;;5032511;28;20032;-78
2023/03/11 01:30:23;;;;;;;7.35;1.67;;;2.80;99.90;;;;;;5033859;28;20132;-78
2023/03/11 01:32:49;;;;;;;8.45;1.80;;;2.80;99.90;;;;;;5033107;28;20052;-78
2023/03/11 01:35:17;;;;;;;7.82;2.03;;;2.80;99.90;;;;;;5032936;28;20025;-78
2023/03/11 01:37:43;;;;;;;8.88;1.85;;;2.80;99.90;;;;;;5033766;28;20032;-77
2023/03/11 01:40:16;;;;;;;8.55;1.70;;;2.80;99.90;;;;;;5031817;28;20022;-79
2023/03/11 01:42:42;;;;;;;10.32;2.08;;;2.80;99.90;;;;;;5009667;28;20026;-77
2023/03/11 01:45:39;;;;;;;7.00;1.92;;;2.80;99.90;;;;;;5032163;28;20132;-78
2023/03/11 01:48:06;;;;;;;9.45;1.67;;;2.80;99.90;;;;;;5029013;28;20032;-77
2023/03/11 01:50:39;;;;;;;9.52;1.77;;;2.80;99.90;;;;;;5032082;28;20029;-79
2023/03/11 01:53:05;;;;;;;7.43;1.55;;;2.80;99.90;;;;;;5029954;28;20041;-78
2023/03/11 01:55:31;;;;;;;7.32;1.40;;;2.90;99.90;;;;;;5033166;28;20029;-78
2023/03/11 01:57:59;;;;;;;9.10;2.03;;;2.90;99.90;;;;;;5032116;28;20029;-77
2023/03/11 02:00:25;;;;;;;7.00;1.65;;;2.90;99.90;;;;;;5031884;28;20501;-76
2023/03/11 02:02:52;;;;;;;10.48;2.00;;;2.90;99.90;;;;;;5032981;28;20117;-77
2023/03/11 02:05:20;;;;;;;5.65;1.60;;;2.90;99.90;;;;;;5033339;28;20452;-77
2023/03/11 02:07:47;;;;;;;11.13;2.22;;;2.90;99.90;;;;;;5015645;28;20036;-77
2023/03/11 02:10:13;;;;;;;16.55;2.90;;;2.90;99.90;;;;;;5031693;28;20026;-77
2023/03/11 02:12:39;;;;;;;6.82;1.55;;;2.90;99.90;;;;;;5022261;28;20048;-77
2023/03/11 02:15:08;;;;;;;2.22;0.85;;;2.90;99.90;;;;;;5053105;28;20025;-77
2023/03/11 02:17:36;;;;;;;7.13;1.50;;;2.90;99.90;;;;;;5052664;28;20426;-77
2023/03/11 02:20:20;;;;;;;4.75;0.90;;;2.90;99.90;;;;;;5052777;28;20065;-76
2023/03/11 02:22:48;;;;;;;6.60;1.40;;;2.90;99.90;;;;;;5029469;28;20040;-76
2023/03/11 02:25:23;;;;;;;9.75;1.90;;;3.00;99.90;;;;;;5032954;28;20035;-77
2023/03/11 02:27:52;;;;;;;6.43;1.42;;;3.10;99.90;;;;;;5032815;28;20029;-77
2023/03/11 02:30:20;;;;;;;5.50;1.05;;;3.10;99.90;;;;;;5013814;28;20048;-77
2023/03/11 02:32:47;;;;;;;1.88;0.80;;;3.10;99.90;;;;;;5032497;28;20041;-76
2023/03/11 02:35:13;;;;;;;7.90;1.20;;;3.10;99.90;;;;;;5032953;28;20025;-76
2023/03/11 02:37:51;;;;;;;4.75;1.35;;;3.20;99.90;;;;;;5031717;28;20109;-75
2023/03/11 02:40:23;;;;;;;4.43;1.10;;;3.10;99.90;;;;;;5032750;28;20021;-76
2023/03/11 02:42:58;;;;;;;6.72;1.13;;;3.10;99.90;;;;;;5029660;28;20095;-76
2023/03/11 02:45:25;;;;;;;3.33;0.90;;;3.10;99.90;;;;;;5021861;28;20040;-76
2023/03/11 02:47:55;;;;;;;5.68;1.02;;;3.00;99.90;;;;;;5032617;28;20477;-76
2023/03/11 02:50:21;;;;;;;4.50;0.90;;;3.00;99.90;;;;;;5032531;28;20061;-75
2023/03/11 02:52:48;;;;;;;6.45;0.80;;;3.00;99.90;;;;;;5032269;28;20033;-75
2023/03/11 02:55:15;;;;;;;4.63;1.20;;;3.00;99.90;;;;;;5032024;28;20083;-75
2023/03/11 02:57:41;;;;;;;10.45;1.75;;;3.00;99.90;;;;;;5032469;28;20103;-75
2023/03/11 03:00:13;;;;;;;4.15;0.90;;;2.90;99.90;;;;;;5031959;28;20385;-75
2023/03/11 03:02:40;;;;;;;5.57;1.27;;;3.00;99.90;;;;;;5032262;28;20094;-75
2023/03/11 03:05:06;;;;;;;6.43;1.50;;;3.00;99.90;;;;;;5032036;28;20021;-75
2023/03/11 03:07:32;;;;;;;3.05;1.15;;;3.00;99.90;;;;;;5031786;28;20022;-76
2023/03/11 03:09:58;;;;;;;5.53;1.10;;;3.00;99.90;;;;;;5031863;28;20468;-75
2023/03/11 03:12:24;;;;;;;6.43;1.30;;;3.10;99.90;;;;;;5014365;28;20033;-75
2023/03/11 03:14:49;;;;;;;5.75;1.02;;;3.10;99.90;;;;;;5031861;28;20042;-76
2023/03/11 03:17:15;;;;;;;8.23;0.90;;;3.10;99.90;;;;;;5031965;28;20036;-76
2023/03/11 03:19:41;;;;;;;3.92;1.02;;;3.10;99.90;;;;;;5032154;28;20083;-74
2023/03/11 03:22:06;;;;;;;5.75;1.05;;;3.10;99.90;;;;;;5032057;28;20033;-75
2023/03/11 03:24:32;;;;;;;5.30;1.05;;;3.10;99.90;;;;;;5014262;28;20098;-75
2023/03/11 03:26:57;;;;;;;4.88;0.82;;;3.00;99.90;;;;;;5031762;28;20034;-76
2023/03/11 03:29:23;;;;;;;4.75;1.25;;;3.00;99.90;;;;;;5031905;28;20049;-75
2023/03/11 03:31:48;;;;;;;5.53;0.90;;;3.00;99.90;;;;;;5031995;28;20108;-73
2023/03/11 03:34:14;;;;;;;5.03;1.00;;;2.90;99.90;;;;;;5031598;28;20171;-74
2023/03/11 03:36:40;;;;;;;6.97;1.33;;;2.80;99.90;;;;;;5031823;28;20036;-73
2023/03/11 03:39:05;;;;;;;3.58;1.00;;;2.80;99.90;;;;;;5031710;28;20034;-76
2023/03/11 03:41:31;;;;;;;4.18;1.10;;;2.80;99.90;;;;;;5013856;28;20030;-74
2023/03/11 03:43:57;;;;;;;5.32;1.15;;;2.70;99.90;;;;;;5031713;28;20040;-74
2023/03/11 03:46:23;;;;;;;5.43;1.23;;;2.70;99.90;;;;;;5031840;28;20466;-75
2023/03/11 03:48:48;;;;;;;3.50;0.88;;;2.70;99.90;;;;;;5031658;28;20057;-75
2023/03/11 03:51:14;;;;;;;12.45;1.83;;;2.60;99.90;;;;;;5031716;28;20049;-75
2023/03/11 03:53:40;;;;;;;5.50;1.52;;;2.60;99.90;;;;;;5031224;28;20116;-73
2023/03/11 03:56:09;;;;;;;7.47;1.13;;;2.50;99.90;;;;;;5031785;28;20022;-74
2023/03/11 03:58:35;;;;;;;5.22;1.48;;;2.50;99.90;;;;;;5031515;28;20025;-72
2023/03/11 04:01:02;;;;;;;4.05;1.67;;;2.50;99.90;;;;;;5031650;28;20053;-74
2023/03/11 04:03:29;;;;;;;7.65;1.42;;;2.50;99.90;;;;;;5031598;28;20048;-73
2023/03/11 04:06:08;;;;;;;8.88;2.00;;;2.40;99.90;;;;;;5031567;28;20041;-72
2023/03/11 04:08:34;;;;;;;10.23;1.95;;;2.40;99.90;;;;;;5013902;28;20026;-72
2023/03/11 04:10:59;;;;;;;6.03;1.30;;;2.40;99.90;;;;;;5031471;28;20040;-73
2023/03/11 04:13:25;;;;;;;10.18;1.63;;;2.40;99.90;;;;;;5035189;28;20049;-72
2023/03/11 04:15:50;;;;;;;5.50;1.50;;;2.40;99.90;;;;;;5017353;28;20030;-72
2023/03/11 04:18:16;;;;;;;4.60;1.90;;;2.40;99.90;;;;;;5035138;28;20025;-73
2023/03/11 04:20:41;;;;;;;6.00;1.60;;;2.40;99.90;;;;;;5035047;28;20029;-73
2023/03/11 04:23:07;;;;;;;7.70;1.73;;;2.40;99.90;;;;;;5035497;28;20057;-73
2023/03/11 04:25:33;;;;;;;6.78;1.40;;;2.40;99.90;;;;;;5034951;28;20038;-73
2023/03/11 04:27:59;;;;;;;7.63;1.67;;;2.30;99.90;;;;;;5035167;28;20021;-73
2023/03/11 04:30:24;;;;;;;7.15;1.70;;;2.20;99.90;;;;;;5035178;28;20049;-73
2023/03/11 04:32:50;;;;;;;8.35;1.60;;;2.20;99.90;;;;;;5034534;28;20505;-73
2023/03/11 04:35:16;;;;;;;11.30;2.00;;;2.10;99.90;;;;;;5034549;28;20532;-73
2023/03/11 04:37:41;;;;;;;6.07;1.90;;;2.10;99.90;;;;;;5035050;28;20515;-73
2023/03/11 04:40:09;;;;;;;10.00;1.70;;;2.00;99.90;;;;;;5034824;28;20096;-73
2023/03/11 04:42:35;;;;;;;5.50;1.33;;;2.00;99.90;;;;;;5035007;28;20037;-73
2023/03/11 04:45:01;;;;;;;5.53;1.60;;;2.00;99.90;;;;;;5034669;28;20053;-73
2023/03/11 04:47:27;;;;;;;9.32;2.50;;;1.90;99.90;;;;;;5034453;28;20462;-73
2023/03/11 04:49:54;;;;;;;9.90;2.10;;;1.90;99.90;;;;;;5034239;28;20117;-73
2023/03/11 04:52:20;;;;;;;13.60;4.88;;;1.90;99.90;;;;;;5034695;28;20056;-73
2023/03/11 04:54:46;;;;;;;7.15;2.63;;;1.80;99.90;;;;;;5034662;28;20029;-73
2023/03/11 04:57:11;;;;;;;11.10;2.40;;;1.80;99.90;;;;;;5034409;28;20032;-73
2023/03/11 04:59:37;;;;;;;7.45;2.47;;;1.70;99.90;;;;;;5034519;28;20033;-73
2023/03/11 05:02:02;;;;;;;7.32;2.80;;;1.70;99.90;;;;;;5034807;28;20354;-73
2023/03/11 05:04:28;;;;;;;9.60;2.40;;;1.70;99.90;;;;;;5013554;28;20073;-73
2023/03/11 05:06:54;;;;;;;10.88;2.50;;;1.60;99.90;;;;;;5032235;28;20075;-72
2023/03/11 05:09:19;;;;;;;11.65;2.70;;;1.60;99.90;;;;;;5034894;28;20021;-72
2023/03/11 05:11:45;;;;;;;8.00;2.42;;;1.60;99.90;;;;;;5034842;28;20087;-72
2023/03/11 05:14:10;;;;;;;10.15;2.60;;;1.60;99.90;;;;;;5034430;28;20056;-73
2023/03/11 05:16:36;;;;;;;11.73;2.85;;;1.60;99.90;;;;;;5034676;28;20104;-73
2023/03/11 05:19:29;;;;;;;7.70;1.85;;;1.50;99.90;;;;;;5034045;28;20022;-73
2023/03/11 05:21:47;;;;;;;9.82;2.42;;;1.50;99.90;;;;;;5034114;28;20029;-73
2023/03/11 05:24:12;;;;;;;10.93;2.72;;;1.50;99.90;;;;;;5034490;28;20347;-73
2023/03/11 05:26:38;;;;;;;12.18;2.58;;;1.50;99.90;;;;;;5034500;28;20034;-73
2023/03/11 05:29:03;;;;;;;12.50;2.20;;;1.50;99.90;;;;;;5033712;28;20050;-74
2023/03/11 05:31:29;;;;;;;6.07;1.92;;;1.50;99.90;;;;;;5033757;28;20061;-73
2023/03/11 05:33:54;;;;;;;8.27;2.42;;;1.40;99.90;;;;;;5034031;28;20081;-73
2023/03/11 05:36:20;;;;;;;7.20;2.70;;;1.40;99.90;;;;;;5034113;28;20029;-73
2023/03/11 05:38:45;;;;;;;10.02;2.40;;;1.40;99.90;;;;;;5033862;28;20029;-73
2023/03/11 05:41:11;;;;;;;11.07;2.55;;;1.40;99.90;;;;;;5033896;28;20032;-73
2023/03/11 05:43:37;;;;;;;8.57;3.03;;;1.40;99.90;;;;;;5033998;28;20477;-73
2023/03/11 05:46:02;;;;;;;9.35;2.40;;;1.40;99.90;;;;;;5033454;28;20461;-74
2023/03/11 05:48:28;;;;;;;9.05;2.78;;;1.40;99.90;;;;;;5016214;28;20481;-73
2023/03/11 05:50:53;;;;;;;6.60;2.33;;;1.30;99.90;;;;;;5033671;28;20025;-73
2023/03/11 05:53:19;;;;;;;7.68;2.38;;;1.30;99.90;;;;;;5033716;28;20124;-73
2023/03/11 05:55:44;;;;;;;6.88;2.70;;;1.30;99.90;;;;;;5033848;28;20029;-73
2023/03/11 05:58:10;;;;;;;5.78;2.40;;;1.20;99.90;;;;;;5033867;28;20034;-74
2023/03/11 06:00:36;;;;;;;8.07;2.50;;;1.20;99.90;;;;;;5033151;28;20036;-73
2023/03/11 06:03:01;;;;;;;9.20;2.95;;;1.20;99.90;;;;;;5012422;28;20462;-73
2023/03/11 06:05:27;;;;;;;8.35;2.60;;;1.10;99.90;;;;;;5020125;28;20029;-73
2023/03/11 06:07:52;;;;;;;10.70;2.97;;;1.10;99.90;;;;;;5033687;28;20037;-73
2023/03/11 06:10:18;;;;;;;8.80;3.05;;;1.10;99.90;;;;;;5033601;28;20030;-73
2023/03/11 06:12:44;;;;;;;11.02;3.63;;;1.10;99.90;;;;;;5033720;28;20396;-73
2023/03/11 06:15:09;;;;;;;12.88;3.63;;;1.10;99.90;;;;;;5033111;28;20079;-74
2023/03/11 06:17:35;;;;;;;7.38;3.15;;;1.10;99.90;;;;;;5033447;28;20028;-74
2023/03/11 06:20:00;;;;;;;7.55;3.15;;;1.10;99.90;;;;;;5033464;28;20780;-73
2023/03/11 06:22:26;;;;;;;12.45;4.00;;;1.00;99.90;;;;;;5012385;28;20381;-75
2023/03/11 06:24:52;;;;;;;16.08;7.57;;;1.10;99.90;;;;;;5013504;28;20473;-74
2023/03/11 06:27:17;;;;;;;10.43;4.22;;;1.00;99.90;;;;;;5033206;28;20484;-74
2023/03/11 06:29:43;;;;;;;11.90;4.60;;;1.10;99.90;;;;;;5032655;28;20045;-74
2023/03/11 06:32:08;;;;;;;15.70;5.07;;;1.10;99.90;;;;;;5032848;28;20022;-74
2023/03/11 06:34:34;;;;;;;12.55;3.97;;;1.10;99.90;;;;;;5032558;28;20032;-73
2023/03/11 06:36:59;;;;;;;13.35;4.00;;;1.10;99.90;;;;;;5015033;28;20041;-74
2023/03/11 06:39:25;;;;;;;13.45;3.47;;;1.10;99.90;;;;;;5032560;28;20032;-74
2023/03/11 06:41:50;;;;;;;16.85;5.85;;;1.10;99.90;;;;;;5033042;28;20033;-74
2023/03/11 06:44:16;;;;;;;10.02;3.58;;;1.20;99.90;;;;;;5032529;28;20120;-75
2023/03/11 06:46:41;;;;;;;14.25;4.63;;;1.20;99.90;;;;;;5033155;28;20036;-74
2023/03/11 06:49:07;;;;;;;12.52;4.35;;;1.30;99.90;;;;;;5033215;28;20055;-74
2023/03/11 06:51:33;;;;;;;11.80;3.58;;;1.30;99.90;;;;;;5032794;28;20112;-74
2023/03/11 06:53:58;;;;;;;10.55;4.38;;;1.30;99.90;;;;;;5032473;28;20084;-74
2023/03/11 06:56:24;;;;;;;12.63;4.65;;;1.30;99.90;;;;;;5032670;28;20017;-75
2023/03/11 06:58:50;;;;;;;11.75;4.32;;;1.40;99.90;;;;;;5032057;28;20268;-74
2023/03/11 07:01:21;;;;;;;13.00;3.90;;;1.50;99.90;;;;;;5032000;28;20444;-74
2023/03/11 07:03:48;;;;;;;14.98;5.05;;;1.50;99.90;;;;;;5032499;28;20068;-74
2023/03/11 07:06:16;;;;;;;13.18;4.47;;;1.50;99.90;;;;;;5031760;28;20120;-74
2023/03/11 07:08:42;;;;;;;12.13;4.20;;;1.60;99.90;;;;;;5031531;28;20546;-74
2023/03/11 07:11:07;;;;;;;10.80;4.22;;;1.60;99.90;;;;;;5032266;28;20108;-74
2023/03/11 07:13:34;;;;;;;13.27;4.35;;;1.70;99.90;;;;;;5032155;28;20045;-74
2023/03/11 07:16:12;;;;;;;10.35;3.80;;;1.80;99.90;;;;;;5032002;28;20033;-75
2023/03/11 07:18:37;;;;;;;12.48;4.72;;;1.80;99.90;;;;;;5032000;28;20025;-74
2023/03/11 07:21:05;;;;;;;7.68;3.33;;;1.90;99.90;;;;;;5031923;28;20520;-74
2023/03/11 07:23:33;;;;;;;10.35;3.08;;;1.90;99.90;;;;;;5032142;28;20033;-74
2023/03/11 07:25:59;;;;;;;7.57;2.75;;;2.00;99.90;;;;;;5031473;28;20466;-75
2023/03/11 07:28:26;;;;;;;10.55;3.03;;;2.10;99.90;;;;;;5031658;28;20152;-75
2023/03/11 07:30:52;;;;;;;12.77;2.60;;;2.20;99.90;;;;;;5031147;28;20405;-74
2023/03/11 07:33:18;;;;;;;10.65;2.80;;;2.30;99.90;;;;;;5032267;28;20038;-74
2023/03/11 07:35:44;;;;;;;6.90;2.92;;;2.40;99.90;;;;;;5031503;28;20029;-74
2023/03/11 07:38:10;;;;;;;10.13;3.92;;;2.50;99.90;;;;;;5032024;28;20034;-74
2023/03/11 07:40:36;;;;;;;8.95;3.20;;;2.70;99.90;;;;;;5031795;28;20026;-74
2023/03/11 07:43:02;;;;;;;7.50;2.60;;;2.90;99.90;;;;;;5031147;28;20025;-74
2023/03/11 07:45:27;;;;;;;10.07;2.38;;;3.00;99.90;;;;;;5031561;28;20026;-74
2023/03/11 07:47:53;;;;;;;11.00;3.30;;;3.10;99.90;;;;;;5034010;28;20064;-74
2023/03/11 07:50:21;;;;;;;7.90;2.65;;;3.20;99.90;;;;;;5035526;28;20037;-74
2023/03/11 07:52:46;;;;;;;15.18;3.58;;;3.40;99.90;;;;;;5035455;28;20038;-73
2023/03/11 07:55:12;;;;;;;9.02;3.08;;;3.60;99.90;;;;;;5034900;28;20099;-73
2023/03/11 07:57:38;;;;;;;7.07;2.67;;;3.70;99.90;;;;;;5018306;28;20423;-73
2023/03/11 08:00:04;;;;;;;9.13;2.60;;;3.80;99.90;;;;;;5034397;28;20021;-73
2023/03/11 08:02:31;;;;;;;8.00;2.50;;;3.90;99.90;;;;;;5035095;28;20076;-73
2023/03/11 08:04:56;;;;;;;10.20;2.78;;;4.10;99.90;;;;;;5016485;28;20450;-73
2023/03/11 08:07:22;;;;;;;6.68;2.90;;;4.20;99.90;;;;;;5035481;28;20064;-73
2023/03/11 08:09:47;;;;;;;10.80;3.38;;;4.40;99.90;;;;;;5035429;28;20425;-73
2023/03/11 08:12:14;;;;;;;6.85;2.30;;;4.60;99.90;;;;;;5035473;28;20489;-72
2023/03/11 08:14:40;;;;;;;14.90;3.00;;;4.90;99.90;;;;;;5035129;28;20083;-72
2023/03/11 08:17:05;;;;;;;4.45;2.40;;;5.20;99.90;;;;;;5034811;28;20465;-72
2023/03/11 08:19:31;;;;;;;10.00;2.88;;;5.60;99.90;;;;;;5034704;28;20041;-73
2023/03/11 08:21:56;;;;;;;7.60;2.58;;;6.20;99.90;;;;;;5034356;28;20082;-71
2023/03/11 08:24:22;;;;;;;9.63;2.65;;;7.00;99.90;;;;;;5035132;28;20488;-73
2023/03/11 08:26:47;;;;;;;8.65;2.08;;;8.00;99.90;;;;;;5032732;28;20105;-72
2023/03/11 08:29:13;;;;;;;8.65;2.35;;;9.00;99.90;;;;;;5034674;28;20494;-72
2023/03/11 08:31:39;;;;;;;4.22;1.35;;;9.80;99.90;;;;;;5035311;28;20494;-72
2023/03/11 08:34:07;;;;;;;4.78;2.05;;;10.90;99.90;;;;;;5017090;28;20037;-71
2023/03/11 08:36:33;;;;;;;3.97;1.05;;;11.90;99.60;;;;;;5015912;28;20030;-72
2023/03/11 08:39:03;;;;;;;5.65;1.92;;;12.70;97.40;;;;;;5033804;28;20106;-73
2023/03/11 08:41:28;;;;;;;5.50;1.65;;;13.20;95.30;;;;;;5033028;28;20033;-72
2023/03/11 08:43:55;;;;;;;4.95;1.42;;;13.30;94.60;;;;;;5034544;28;20089;-71
2023/03/11 08:46:38;;;;;;;7.32;2.42;;;13.20;93.80;;;;;;5034694;28;20437;-72
2023/03/11 08:49:04;;;;;;;2.40;1.00;;;13.00;94.10;;;;;;5014039;28;20030;-72
2023/03/11 08:51:34;;;;;;;6.45;1.33;;;12.80;93.70;;;;;;5005652;28;20079;-72
2023/03/11 08:54:01;;;;;;;3.40;1.38;;;12.60;93.40;;;;;;5034644;28;20519;-72
2023/03/11 08:56:27;;;;;;;12.73;2.88;;;12.70;93.40;;;;;;5033871;28;20037;-74
2023/03/11 08:58:53;;;;;;;11.60;4.20;;;12.90;93.90;;;;;;5016539;28;20075;-72
2023/03/11 09:01:19;;;;;;;10.60;3.85;;;13.20;93.30;;;;;;5033070;28;20120;-72
2023/03/11 09:03:45;;;;;;;7.50;2.35;;;13.40;92.50;;;;;;5019009;28;20038;-73
2023/03/11 09:06:14;;;;;;;9.00;2.33;;;13.60;92.90;;;;;;5027370;28;20091;-72
2023/03/11 09:08:40;;;;;;;4.68;1.17;;;14.00;92.50;;;;;;5034451;28;20144;-73
2023/03/11 09:11:06;;;;;;;11.65;4.13;;;14.30;92.10;;;;;;5034143;28;20031;-73
2023/03/11 09:13:32;;;;;;;10.45;3.45;;;14.80;91.40;;;;;;5034691;28;20037;-74
2023/03/11 09:15:57;;;;;;;2.15;0.68;;;15.50;90.70;;;;;;5033497;28;20033;-74
2023/03/11 09:18:23;;;;;;;2.08;0.80;;;16.50;89.80;;;;;;5033143;28;20029;-75
2023/03/11 09:20:49;;;;;;;6.15;1.40;;;17.60;87.00;;;;;;5024779;28;20079;-74
2023/03/11 09:23:16;;;;;;;5.40;1.10;;;18.70;83.00;;;;;;5034239;28;20079;-75
2023/03/11 09:25:42;;;;;;;11.07;3.17;;;19.20;80.30;;;;;;5030721;28;20037;-74
2023/03/11 09:28:07;;;;;;;6.25;1.40;;;19.50;79.30;;;;;;5032902;28;20025;-74
2023/03/11 09:30:34;;;;;;;7.20;1.63;;;19.70;78.10;;;;;;5033594;28;20056;-74
2023/03/11 09:33:00;;;;;;;5.53;2.10;;;19.90;76.90;;;;;;5033684;28;20045;-74
2023/03/11 09:35:25;;;;;;;8.30;2.60;;;20.30;77.00;;;;;;5033057;28;20029;-75
2023/03/11 09:37:51;;;;;;;5.32;2.35;;;20.60;74.60;;;;;;5033675;28;20100;-75
2023/03/11 09:40:21;;;;;;;8.05;2.03;;;20.50;74.20;;;;;;5032710;28;20155;-75
2023/03/11 09:42:53;;;;;;;8.27;3.22;;;20.30;73.10;;;;;;5033983;28;20057;-75
2023/03/11 09:45:23;;;;;;;5.55;2.22;;;19.90;73.10;;;;;;5032494;28;20450;-75
2023/03/11 09:47:52;;;;;;;7.30;2.35;;;19.40;73.60;;;;;;5033552;28;20112;-75
2023/03/11 09:50:39;;;;;;;2.40;1.30;;;18.70;73.90;;;;;;5033870;28;20083;-77
2023/03/11 09:53:16;;;;;;;10.05;3.10;;;17.90;75.00;;;;;;5033729;28;20389;-76
2023/03/11 09:55:47;;;;;;;9.90;3.53;;;17.30;76.10;;;;;;5033725;28;20032;-76
2023/03/11 09:58:15;;;;;;;9.30;2.78;;;16.60;77.20;;;;;;5015560;28;20017;-77
2023/03/11 10:00:41;;;;;;;7.45;1.70;;;16.00;78.60;;;;;;5016129;28;20044;-77
2023/03/11 10:03:19;;;;;;;7.68;3.03;;;15.60;79.60;;;;;;5033613;28;20112;-76
2023/03/11 10:05:45;;;;;;;7.57;2.05;;;15.20;80.50;;;;;;5033550;28;20366;-76
2023/03/11 10:08:26;;;;;;;2.13;0.70;;;14.90;81.60;;;;;;5033781;28;20040;-76
2023/03/11 10:11:25;;;;;;;5.67;2.03;;;14.80;80.80;;;;;;5032861;28;20037;-76
2023/03/11 10:14:01;;;;;;;6.65;1.80;;;14.90;82.00;;;;;;5025935;28;20053;-76
2023/03/11 10:16:32;;;;;;;6.05;2.42;;;15.20;82.50;;;;;;5033690;28;20030;-76
2023/03/11 10:19:38;;;;;;;4.80;1.50;;;15.70;83.00;;;;;;5032526;28;20023;-76
2023/03/11 10:22:28;;;;;;;5.72;1.50;;;16.60;80.50;;;;;;5032101;28;20273;-76
2023/03/11 10:25:11;;;;;;;8.32;2.10;;;16.80;79.30;;;;;;5015126;28;20029;-76
2023/03/11 10:27:48;;;;;;;3.88;1.50;;;16.70;79.80;;;;;;5033167;28;20021;-76
2023/03/11 10:30:26;;;;;;;4.72;0.85;;;16.70;80.80;;;;;;5033373;28;20041;-74
2023/03/11 10:32:58;;;;;;;6.40;2.17;;;17.10;78.60;;;;;;5018875;28;20072;-74
2023/03/11 10:35:41;;;;;;;4.82;1.17;;;17.40;79.40;;;;;;5013004;28;20108;-75
2023/03/11 10:38:17;;;;;;;5.20;2.42;;;17.80;78.60;;;;;;5012452;28;20121;-75
2023/03/11 10:40:45;;;;;;;5.25;1.05;;;18.00;77.70;;;;;;5031507;28;20110;-75
2023/03/11 10:43:16;;;;;;;11.13;2.80;;;18.30;76.80;;;;;;5032629;28;20481;-75
2023/03/11 10:45:44;;;;;;;10.43;3.05;;;19.00;77.30;;;;;;5032934;28;20021;-74
2023/03/11 10:48:11;;;;;;;4.28;2.20;;;19.60;75.60;;;;;;5032115;28;20354;-75
2023/03/11 10:50:46;;;;;;;2.70;0.95;;;19.90;74.00;;;;;;5012877;28;20034;-75
2023/03/11 10:53:17;;;;;;;4.13;1.38;;;20.40;73.50;;;;;;5012961;28;20046;-74
2023/03/11 10:55:52;;;;;;;7.57;2.05;;;21.00;72.70;;;;;;5012930;28;20018;-75
2023/03/11 10:58:29;;;;;;;3.45;1.13;;;21.50;73.00;;;;;;5013214;28;20084;-75
2023/03/11 11:01:01;;;;;;;8.00;2.08;;;22.30;71.70;;;;;;5020693;28;20029;-74
2023/03/11 11:03:27;;;;;;;6.32;2.13;;;22.10;69.40;;;;;;5032237;28;20033;-74
2023/03/11 11:06:06;;;;;;;4.20;1.38;;;21.90;70.10;;;;;;5032754;28;20112;-75
2023/03/11 11:08:32;;;;;;;7.32;1.85;;;22.00;69.60;;;;;;5012852;28;20037;-74
2023/03/11 11:11:03;;;;;;;6.47;2.15;;;22.10;69.40;;;;;;5012741;28;20075;-74
2023/03/11 11:13:33;;;;;;;6.13;1.75;;;22.20;69.80;;;;;;5029763;28;20048;-74
2023/03/11 11:16:16;;;;;;;7.07;1.67;;;22.50;68.90;;;;;;5032448;28;20547;-74
2023/03/11 11:18:45;;;;;;;4.90;2.20;;;22.40;68.10;;;;;;5030437;28;20033;-74
2023/03/11 11:21:32;;;;;;;8.18;1.70;;;22.10;67.70;;;;;;5022972;28;20038;-74
2023/03/11 11:24:18;;;;;;;2.22;1.15;;;21.80;69.90;;;;;;5012283;28;20033;-74
2023/03/11 11:27:16;;;;;;;5.80;2.03;;;22.10;67.90;;;;;;5012539;28;20026;-74
2023/03/11 11:29:42;;;;;;;2.90;1.05;;;22.30;68.30;;;;;;5013315;28;20054;-74
2023/03/11 11:32:14;;;;;;;5.60;1.40;;;22.00;67.80;;;;;;5032057;28;20030;-73
2023/03/11 11:34:40;;;;;;;3.83;1.13;;;22.10;67.20;;;;;;5032463;28;20041;-74
2023/03/11 11:37:12;;;;;;;3.17;0.85;;;21.90;66.70;;;;;;5031539;28;20113;-73
2023/03/11 11:39:50;;;;;;;5.57;0.93;;;20.90;67.00;;;;;;5032535;28;20083;-74
2023/03/11 11:42:17;;;;;;;5.70;1.88;;;20.50;69.20;;;;;;5031931;28;20038;-73
2023/03/11 11:44:49;;;;;;;2.53;0.73;;;20.70;69.40;;;;;;5032253;28;20049;-73
2023/03/11 11:47:25;;;;;;;2.33;0.73;;;20.80;68.30;;;;;;5030341;28;20021;-73
2023/03/11 11:49:58;;;;;;;5.78;1.48;;;21.20;67.10;;;;;;5031694;28;20060;-73
2023/03/11 11:52:29;;;;;;;5.47;1.30;;;21.20;66.50;;;;;;5031701;28;20454;-73
2023/03/11 11:55:06;;;;;;;4.57;1.67;;;20.80;69.30;;;;;;5028315;28;20136;-73
2023/03/11 11:57:32;;;;;;;4.00;1.10;;;20.80;69.90;;;;;;5022504;28;20042;-73
2023/03/11 11:59:58;;;;;;;4.65;1.23;;;21.00;69.70;;;;;;5027778;28;20030;-73
2023/03/11 12:02:35;;;;;;;3.45;1.02;;;21.00;67.20;;;;;;5026560;28;20362;-73
2023/03/11 12:05:15;;;;;;;7.97;1.15;;;20.90;67.70;;;;;;5026299;28;20037;-73
2023/03/11 12:08:21;;;;;;;4.55;1.13;;;20.80;67.60;;;;;;5031068;28;20384;-73
2023/03/11 12:11:07;;;;;;;2.55;1.00;;;21.10;68.70;;;;;;5022891;28;20402;-72
2023/03/11 12:14:03;;;;;;;3.17;1.20;;;21.10;66.90;;;;;;5031351;28;20027;-73
2023/03/11 12:16:59;;;;;;;5.20;1.15;;;21.10;68.30;;;;;;5029300;28;20037;-73
2023/03/11 12:19:59;;;;;;;5.25;1.00;;;21.40;68.60;;;;;;5029701;28;20021;-73
2023/03/11 12:22:46;;;;;;;4.28;0.73;;;21.20;68.10;;;;;;5027085;28;20033;-72
2023/03/11 12:25:25;;;;;;;3.03;1.00;;;21.20;68.50;;;;;;5031576;28;20061;-73
2023/03/11 12:28:08;;;;;;;3.63;1.20;;;21.20;69.00;;;;;;5024657;28;20380;-73
2023/03/11 12:30:43;;;;;;;7.22;1.20;;;20.80;68.30;;;;;;5021728;28;20056;-74
2023/03/11 12:33:36;;;;;;;4.93;0.90;;;20.20;69.70;;;;;;5031766;28;20084;-73
2023/03/11 12:36:03;;;;;;;5.80;1.00;;;19.90;70.70;;;;;;5016809;28;20120;-73
2023/03/11 12:38:35;;;;;;;3.58;1.25;;;19.50;70.30;;;;;;5034410;28;20022;-73
2023/03/11 12:41:05;;;;;;;;;;;19.20;70.00;;;;;;5033504;28;20034;-73
2023/03/11 12:43:32;;;;;;;3.65;1.02;;;19.00;72.40;;;;;;5034187;28;20000;-73
2023/03/11 12:45:59;;;;;;;4.53;0.90;;;18.70;71.30;;;;;;5035017;28;20025;-72
2023/03/11 12:48:28;;;;;;;7.43;1.80;;;18.60;72.40;;;;;;5034921;28;20088;-72
2023/03/11 12:50:55;;;;;;;8.18;1.48;;;18.70;72.90;;;;;;5025269;28;20022;-73
2023/03/11 12:53:47;;;;;;;3.55;1.10;;;18.50;71.20;;;;;;5030276;28;20056;-73
2023/03/11 12:56:50;;;;;;;7.18;2.10;;;17.80;72.40;;;;;;5025271;28;20025;-73
2023/03/11 12:59:54;;;;;;;6.30;1.10;;;17.30;74.10;;;;;;5034662;28;20036;-72
2023/03/11 13:02:23;;;;;;;5.80;1.08;;;17.00;74.40;;;;;;5006010;28;20049;-73